Onsted, MI (49265)

3:09 AM EST on February 09, 2016 (GMT -0500)
Irish Hills Onsted | | Change Station
CLOSE
Current Station
Personal Weather Station
Location: Brooklyn, MI
Elevation: 1044 ft
Nearby Weather Stations

Elev 1044 ft 42.06 °N, 84.22 °W | Updated 7 seconds ago

Overcast
Overcast
29.4 °F
Feels Like 22 °F
N
7.0
Wind Variable Wind from West
Gusts 12.0 mph

Today
High -- | Low -- °F
--% Chance of Precip.
Yesterday
High -- | Low -- °F
Precip. -- in
Pressure 29.60 in
Visibility 10.0 miles
Clouds Overcast 1200 ft
Windchill 22 °F
Dew Point 27 °F
Humidity 92%
Rainfall 0.00 in
Snow Depth Not available.
7:41 AM 6:01 PM
New Moon, 1% visible
METAR KADG 090753Z AUTO 28009KT 10SM OVC012 M01/M03 A2957 RMK AO2 SLP021 T10111033
Pressure 29.60 in
Visibility 10.0 miles
Clouds Overcast 1200 ft
Windchill 22 °F
Dew Point 27 °F
Humidity 92%
Rainfall 0.00 in
Snow Depth Not available.
7:41 AM 6:01 PM
New Moon, 1% visible
METAR KADG 090753Z AUTO 28009KT 10SM OVC012 M01/M03 A2957 RMK AO2 SLP021 T10111033

10-Day Weather Forecast

Almanac

Astronomy

Feb. 09, 2016 Rise Set
Actual Time
Civil Twilight
Nautical Twilight
Astronomical Twilight
Moon
Length of Visible Light
Length of Day
Tomorrow will be .
, % of the Moon is Illuminated

Today's Extremes

State Highs State Lows

Community

WunderPhotos

Upload Photos

1,891,571 photos uploaded!

WunderBlog® & News

Nearby

Air Quality

  Air Quality AQ Index Pollutant
Not available.

Snow Depth

Station Depth Elevation

Earthquake Activity

City Distance Mag. Time & Date
Minimum magnitude displayed is 2.5.

Coastal Water Temperatures

Place Temperature

Stations

Nearby Weather Stations

Station Location Temp. Windchill Dew Point Humidity Wind Precip. Elev Updated Type
                   

Watches & Warnings

There are currently no watches in effect.